sensor_id;sensor_type;location;lat;lon;timestamp;P1;durP1;ratioP1;P2;durP2;ratioP2
57635;SDS011;43465;50.728;4.160;2022-10-16T00:01:29;2.22;;;1.02;;
57635;SDS011;43465;50.728;4.160;2022-10-16T00:03:56;2.97;;;1.30;;
57635;SDS011;43465;50.728;4.160;2022-10-16T00:06:23;2.33;;;1.30;;
57635;SDS011;43465;50.728;4.160;2022-10-16T00:08:50;2.20;;;1.20;;
57635;SDS011;43465;50.728;4.160;2022-10-16T00:11:17;5.60;;;1.20;;
57635;SDS011;43465;50.728;4.160;2022-10-16T00:13:51;3.88;;;1.45;;
57635;SDS011;43465;50.728;4.160;2022-10-16T00:16:19;2.75;;;1.33;;
57635;SDS011;43465;50.728;4.160;2022-10-16T00:18:45;3.08;;;1.10;;
57635;SDS011;43465;50.728;4.160;2022-10-16T00:21:19;2.72;;;1.20;;
57635;SDS011;43465;50.728;4.160;2022-10-16T00:23:56;1.80;;;1.35;;
57635;SDS011;43465;50.728;4.160;2022-10-16T00:26:24;1.08;;;1.00;;
57635;SDS011;43465;50.728;4.160;2022-10-16T00:28:51;2.20;;;1.25;;
57635;SDS011;43465;50.728;4.160;2022-10-16T00:31:17;2.17;;;1.20;;
57635;SDS011;43465;50.728;4.160;2022-10-16T00:33:46;1.90;;;1.50;;
57635;SDS011;43465;50.728;4.160;2022-10-16T00:36:13;1.52;;;1.30;;
57635;SDS011;43465;50.728;4.160;2022-10-16T00:38:40;1.65;;;1.30;;
57635;SDS011;43465;50.728;4.160;2022-10-16T00:41:07;1.77;;;1.67;;
57635;SDS011;43465;50.728;4.160;2022-10-16T00:46:14;1.23;;;1.13;;
57635;SDS011;43465;50.728;4.160;2022-10-16T00:48:47;1.40;;;1.30;;
57635;SDS011;43465;50.728;4.160;2022-10-16T00:51:38;1.98;;;1.30;;
57635;SDS011;43465;50.728;4.160;2022-10-16T00:54:08;2.67;;;1.42;;
57635;SDS011;43465;50.728;4.160;2022-10-16T00:56:40;2.50;;;1.40;;
57635;SDS011;43465;50.728;4.160;2022-10-16T00:59:12;1.70;;;1.60;;
57635;SDS011;43465;50.728;4.160;2022-10-16T01:01:44;2.13;;;1.40;;
57635;SDS011;43465;50.728;4.160;2022-10-16T01:04:10;2.28;;;1.35;;
57635;SDS011;43465;50.728;4.160;2022-10-16T01:06:38;3.45;;;1.75;;
57635;SDS011;43465;50.728;4.160;2022-10-16T01:09:32;2.70;;;1.70;;
57635;SDS011;43465;50.728;4.160;2022-10-16T01:15:17;1.80;;;1.70;;
57635;SDS011;43465;50.728;4.160;2022-10-16T01:17:58;1.65;;;1.30;;
57635;SDS011;43465;50.728;4.160;2022-10-16T01:20:29;3.50;;;1.77;;
57635;SDS011;43465;50.728;4.160;2022-10-16T01:28:10;3.15;;;1.80;;
57635;SDS011;43465;50.728;4.160;2022-10-16T01:30:37;2.83;;;1.83;;
57635;SDS011;43465;50.728;4.160;2022-10-16T01:33:14;1.88;;;1.67;;
57635;SDS011;43465;50.728;4.160;2022-10-16T01:35:46;4.53;;;2.03;;
57635;SDS011;43465;50.728;4.160;2022-10-16T01:38:25;3.13;;;1.60;;
57635;SDS011;43465;50.728;4.160;2022-10-16T01:41:01;2.30;;;1.55;;
57635;SDS011;43465;50.728;4.160;2022-10-16T01:43:35;3.72;;;1.48;;
57635;SDS011;43465;50.728;4.160;2022-10-16T01:46:05;3.60;;;1.65;;
57635;SDS011;43465;50.728;4.160;2022-10-16T01:48:32;2.20;;;1.50;;
57635;SDS011;43465;50.728;4.160;2022-10-16T01:51:04;2.20;;;1.70;;
57635;SDS011;43465;50.728;4.160;2022-10-16T01:53:33;2.38;;;1.60;;
57635;SDS011;43465;50.728;4.160;2022-10-16T01:56:00;2.83;;;1.70;;
57635;SDS011;43465;50.728;4.160;2022-10-16T01:58:28;5.90;;;1.70;;
57635;SDS011;43465;50.728;4.160;2022-10-16T02:00:59;3.42;;;1.65;;
57635;SDS011;43465;50.728;4.160;2022-10-16T02:03:26;3.35;;;1.95;;
57635;SDS011;43465;50.728;4.160;2022-10-16T02:05:55;4.03;;;2.15;;
57635;SDS011;43465;50.728;4.160;2022-10-16T02:08:24;3.80;;;2.00;;
57635;SDS011;43465;50.728;4.160;2022-10-16T02:10:53;4.35;;;2.00;;
57635;SDS011;43465;50.728;4.160;2022-10-16T02:13:54;3.58;;;2.05;;
57635;SDS011;43465;50.728;4.160;2022-10-16T02:16:15;2.22;;;1.98;;
57635;SDS011;43465;50.728;4.160;2022-10-16T02:18:41;3.25;;;2.30;;
57635;SDS011;43465;50.728;4.160;2022-10-16T02:21:25;3.72;;;2.45;;
57635;SDS011;43465;50.728;4.160;2022-10-16T02:23:59;2.72;;;2.10;;
57635;SDS011;43465;50.728;4.160;2022-10-16T02:26:35;2.40;;;2.20;;
57635;SDS011;43465;50.728;4.160;2022-10-16T02:29:06;2.80;;;2.53;;
57635;SDS011;43465;50.728;4.160;2022-10-16T02:31:36;5.43;;;2.65;;
57635;SDS011;43465;50.728;4.160;2022-10-16T02:34:07;5.00;;;2.47;;
57635;SDS011;43465;50.728;4.160;2022-10-16T02:36:36;3.65;;;2.63;;
57635;SDS011;43465;50.728;4.160;2022-10-16T02:39:04;4.35;;;2.78;;
57635;SDS011;43465;50.728;4.160;2022-10-16T02:41:30;4.03;;;2.58;;
57635;SDS011;43465;50.728;4.160;2022-10-16T02:43:56;9.30;;;2.25;;
57635;SDS011;43465;50.728;4.160;2022-10-16T02:46:22;4.82;;;2.53;;
57635;SDS011;43465;50.728;4.160;2022-10-16T02:48:47;5.72;;;2.58;;
57635;SDS011;43465;50.728;4.160;2022-10-16T02:51:13;6.15;;;2.83;;
57635;SDS011;43465;50.728;4.160;2022-10-16T02:53:39;3.13;;;2.63;;
57635;SDS011;43465;50.728;4.160;2022-10-16T02:56:04;6.72;;;2.75;;
57635;SDS011;43465;50.728;4.160;2022-10-16T02:58:30;5.75;;;2.72;;
57635;SDS011;43465;50.728;4.160;2022-10-16T03:00:56;3.10;;;2.75;;
57635;SDS011;43465;50.728;4.160;2022-10-16T03:03:21;2.80;;;2.47;;
57635;SDS011;43465;50.728;4.160;2022-10-16T03:05:47;5.25;;;2.47;;
57635;SDS011;43465;50.728;4.160;2022-10-16T03:08:13;3.95;;;2.67;;
57635;SDS011;43465;50.728;4.160;2022-10-16T03:10:39;3.53;;;2.25;;
57635;SDS011;43465;50.728;4.160;2022-10-16T03:13:04;2.67;;;2.40;;
57635;SDS011;43465;50.728;4.160;2022-10-16T03:15:30;4.07;;;2.65;;
57635;SDS011;43465;50.728;4.160;2022-10-16T03:17:59;3.88;;;2.25;;
57635;SDS011;43465;50.728;4.160;2022-10-16T03:20:25;4.22;;;2.55;;
57635;SDS011;43465;50.728;4.160;2022-10-16T03:22:51;4.47;;;2.70;;
57635;SDS011;43465;50.728;4.160;2022-10-16T03:25:17;4.65;;;2.60;;
57635;SDS011;43465;50.728;4.160;2022-10-16T03:27:42;4.32;;;2.70;;
57635;SDS011;43465;50.728;4.160;2022-10-16T03:30:08;4.50;;;2.60;;
57635;SDS011;43465;50.728;4.160;2022-10-16T03:32:34;4.90;;;2.63;;
57635;SDS011;43465;50.728;4.160;2022-10-16T03:35:00;7.30;;;3.00;;
57635;SDS011;43465;50.728;4.160;2022-10-16T03:37:26;4.90;;;2.67;;
57635;SDS011;43465;50.728;4.160;2022-10-16T03:39:51;5.72;;;3.08;;
57635;SDS011;43465;50.728;4.160;2022-10-16T03:42:17;4.20;;;3.00;;
57635;SDS011;43465;50.728;4.160;2022-10-16T03:44:43;4.60;;;3.22;;
57635;SDS011;43465;50.728;4.160;2022-10-16T03:47:08;8.38;;;3.38;;
57635;SDS011;43465;50.728;4.160;2022-10-16T03:49:34;5.53;;;2.83;;
57635;SDS011;43465;50.728;4.160;2022-10-16T03:52:00;5.82;;;2.70;;
57635;SDS011;43465;50.728;4.160;2022-10-16T03:54:25;3.38;;;3.08;;
57635;SDS011;43465;50.728;4.160;2022-10-16T03:56:51;5.22;;;3.15;;
57635;SDS011;43465;50.728;4.160;2022-10-16T03:59:16;3.58;;;2.90;;
57635;SDS011;43465;50.728;4.160;2022-10-16T04:01:42;3.13;;;2.47;;
57635;SDS011;43465;50.728;4.160;2022-10-16T04:04:08;7.18;;;3.05;;
57635;SDS011;43465;50.728;4.160;2022-10-16T04:06:34;5.35;;;3.17;;
57635;SDS011;43465;50.728;4.160;2022-10-16T04:08:59;6.65;;;3.53;;
57635;SDS011;43465;50.728;4.160;2022-10-16T04:11:25;4.90;;;3.22;;
57635;SDS011;43465;50.728;4.160;2022-10-16T04:13:51;6.05;;;3.03;;
57635;SDS011;43465;50.728;4.160;2022-10-16T04:16:16;3.97;;;3.65;;
57635;SDS011;43465;50.728;4.160;2022-10-16T04:18:42;7.85;;;3.20;;
57635;SDS011;43465;50.728;4.160;2022-10-16T04:21:08;7.05;;;3.47;;
57635;SDS011;43465;50.728;4.160;2022-10-16T04:23:33;4.38;;;3.10;;
57635;SDS011;43465;50.728;4.160;2022-10-16T04:25:59;7.55;;;3.35;;
57635;SDS011;43465;50.728;4.160;2022-10-16T04:28:25;5.15;;;3.00;;
57635;SDS011;43465;50.728;4.160;2022-10-16T04:30:51;7.20;;;3.50;;
57635;SDS011;43465;50.728;4.160;2022-10-16T04:33:17;9.70;;;3.35;;
57635;SDS011;43465;50.728;4.160;2022-10-16T04:35:43;3.80;;;3.38;;
57635;SDS011;43465;50.728;4.160;2022-10-16T04:38:08;4.30;;;3.45;;
57635;SDS011;43465;50.728;4.160;2022-10-16T04:40:34;5.00;;;3.20;;
57635;SDS011;43465;50.728;4.160;2022-10-16T04:43:03;8.10;;;3.92;;
57635;SDS011;43465;50.728;4.160;2022-10-16T04:45:29;5.50;;;3.55;;
57635;SDS011;43465;50.728;4.160;2022-10-16T04:47:58;8.27;;;3.70;;
57635;SDS011;43465;50.728;4.160;2022-10-16T04:50:24;9.00;;;3.95;;
57635;SDS011;43465;50.728;4.160;2022-10-16T04:52:50;6.80;;;3.75;;
57635;SDS011;43465;50.728;4.160;2022-10-16T04:55:16;6.00;;;3.83;;
57635;SDS011;43465;50.728;4.160;2022-10-16T04:57:41;5.00;;;4.00;;
57635;SDS011;43465;50.728;4.160;2022-10-16T05:00:07;6.93;;;3.80;;
57635;SDS011;43465;50.728;4.160;2022-10-16T05:02:33;7.85;;;3.67;;
57635;SDS011;43465;50.728;4.160;2022-10-16T05:04:59;8.40;;;4.28;;
57635;SDS011;43465;50.728;4.160;2022-10-16T05:07:25;9.20;;;4.10;;
57635;SDS011;43465;50.728;4.160;2022-10-16T05:09:50;8.00;;;3.80;;
57635;SDS011;43465;50.728;4.160;2022-10-16T05:12:16;8.43;;;4.05;;
57635;SDS011;43465;50.728;4.160;2022-10-16T05:14:42;5.93;;;4.20;;
57635;SDS011;43465;50.728;4.160;2022-10-16T05:17:07;8.57;;;4.13;;
57635;SDS011;43465;50.728;4.160;2022-10-16T05:19:33;6.18;;;4.13;;
57635;SDS011;43465;50.728;4.160;2022-10-16T05:21:59;8.20;;;4.05;;
57635;SDS011;43465;50.728;4.160;2022-10-16T05:24:24;6.53;;;4.38;;
57635;SDS011;43465;50.728;4.160;2022-10-16T05:26:50;10.57;;;4.85;;
57635;SDS011;43465;50.728;4.160;2022-10-16T05:29:16;9.35;;;4.18;;
57635;SDS011;43465;50.728;4.160;2022-10-16T05:31:42;8.95;;;4.60;;
57635;SDS011;43465;50.728;4.160;2022-10-16T05:34:07;8.23;;;4.10;;
57635;SDS011;43465;50.728;4.160;2022-10-16T05:36:33;10.93;;;4.28;;
57635;SDS011;43465;50.728;4.160;2022-10-16T05:38:59;10.05;;;4.28;;
57635;SDS011;43465;50.728;4.160;2022-10-16T05:41:24;5.78;;;4.50;;
57635;SDS011;43465;50.728;4.160;2022-10-16T05:43:51;6.60;;;4.55;;
57635;SDS011;43465;50.728;4.160;2022-10-16T05:46:17;8.50;;;4.10;;
57635;SDS011;43465;50.728;4.160;2022-10-16T05:48:43;9.77;;;4.75;;
57635;SDS011;43465;50.728;4.160;2022-10-16T05:51:09;10.40;;;4.40;;
57635;SDS011;43465;50.728;4.160;2022-10-16T05:53:37;6.00;;;4.00;;
57635;SDS011;43465;50.728;4.160;2022-10-16T05:56:04;7.68;;;4.55;;
57635;SDS011;43465;50.728;4.160;2022-10-16T05:58:32;5.65;;;4.18;;
57635;SDS011;43465;50.728;4.160;2022-10-16T06:01:01;6.75;;;4.28;;
57635;SDS011;43465;50.728;4.160;2022-10-16T06:03:49;7.18;;;4.38;;
57635;SDS011;43465;50.728;4.160;2022-10-16T06:06:17;10.15;;;4.93;;
57635;SDS011;43465;50.728;4.160;2022-10-16T06:08:48;6.85;;;4.38;;
57635;SDS011;43465;50.728;4.160;2022-10-16T06:11:18;7.97;;;4.35;;
57635;SDS011;43465;50.728;4.160;2022-10-16T06:13:48;7.45;;;4.25;;
57635;SDS011;43465;50.728;4.160;2022-10-16T06:16:15;8.38;;;4.50;;
57635;SDS011;43465;50.728;4.160;2022-10-16T06:18:41;6.10;;;4.35;;
57635;SDS011;43465;50.728;4.160;2022-10-16T06:21:10;9.00;;;4.65;;
57635;SDS011;43465;50.728;4.160;2022-10-16T06:23:39;6.22;;;4.15;;
57635;SDS011;43465;50.728;4.160;2022-10-16T06:26:08;13.05;;;4.80;;
57635;SDS011;43465;50.728;4.160;2022-10-16T06:28:36;7.75;;;4.18;;
57635;SDS011;43465;50.728;4.160;2022-10-16T06:31:02;7.97;;;3.88;;
57635;SDS011;43465;50.728;4.160;2022-10-16T06:33:30;4.88;;;3.92;;
57635;SDS011;43465;50.728;4.160;2022-10-16T06:36:02;5.38;;;3.65;;
57635;SDS011;43465;50.728;4.160;2022-10-16T06:38:33;6.05;;;3.80;;
57635;SDS011;43465;50.728;4.160;2022-10-16T06:40:59;9.45;;;4.15;;
57635;SDS011;43465;50.728;4.160;2022-10-16T06:43:25;6.03;;;3.80;;
57635;SDS011;43465;50.728;4.160;2022-10-16T06:45:52;7.65;;;3.50;;
57635;SDS011;43465;50.728;4.160;2022-10-16T06:48:18;9.75;;;3.70;;
57635;SDS011;43465;50.728;4.160;2022-10-16T06:50:44;7.85;;;3.80;;
57635;SDS011;43465;50.728;4.160;2022-10-16T06:53:19;6.25;;;3.67;;
57635;SDS011;43465;50.728;4.160;2022-10-16T06:55:45;7.53;;;4.22;;
57635;SDS011;43465;50.728;4.160;2022-10-16T06:58:10;6.50;;;3.58;;
57635;SDS011;43465;50.728;4.160;2022-10-16T07:00:36;7.35;;;3.72;;
57635;SDS011;43465;50.728;4.160;2022-10-16T07:03:02;5.43;;;3.67;;
57635;SDS011;43465;50.728;4.160;2022-10-16T07:05:27;5.40;;;3.50;;
57635;SDS011;43465;50.728;4.160;2022-10-16T07:07:53;9.68;;;3.92;;
57635;SDS011;43465;50.728;4.160;2022-10-16T07:10:18;5.13;;;3.50;;
57635;SDS011;43465;50.728;4.160;2022-10-16T07:12:44;9.02;;;4.07;;
57635;SDS011;43465;50.728;4.160;2022-10-16T07:15:10;6.57;;;4.05;;
57635;SDS011;43465;50.728;4.160;2022-10-16T07:17:37;5.63;;;4.15;;
57635;SDS011;43465;50.728;4.160;2022-10-16T07:20:03;6.93;;;4.53;;
57635;SDS011;43465;50.728;4.160;2022-10-16T07:22:29;8.90;;;4.13;;
57635;SDS011;43465;50.728;4.160;2022-10-16T07:24:54;5.28;;;4.22;;
57635;SDS011;43465;50.728;4.160;2022-10-16T07:27:20;5.50;;;3.90;;
57635;SDS011;43465;50.728;4.160;2022-10-16T07:29:48;7.88;;;4.32;;
57635;SDS011;43465;50.728;4.160;2022-10-16T07:32:14;6.82;;;3.67;;
57635;SDS011;43465;50.728;4.160;2022-10-16T07:34:40;6.00;;;3.80;;
57635;SDS011;43465;50.728;4.160;2022-10-16T07:37:05;5.57;;;3.28;;
57635;SDS011;43465;50.728;4.160;2022-10-16T07:39:31;8.68;;;3.80;;
57635;SDS011;43465;50.728;4.160;2022-10-16T07:41:57;5.78;;;3.67;;
57635;SDS011;43465;50.728;4.160;2022-10-16T07:44:23;6.55;;;3.65;;
57635;SDS011;43465;50.728;4.160;2022-10-16T07:46:48;5.55;;;3.80;;
57635;SDS011;43465;50.728;4.160;2022-10-16T07:49:14;5.05;;;3.90;;
57635;SDS011;43465;50.728;4.160;2022-10-16T07:51:40;5.65;;;3.60;;
57635;SDS011;43465;50.728;4.160;2022-10-16T07:54:05;4.07;;;3.35;;
57635;SDS011;43465;50.728;4.160;2022-10-16T07:56:32;6.38;;;3.50;;
57635;SDS011;43465;50.728;4.160;2022-10-16T07:58:58;6.95;;;3.75;;
57635;SDS011;43465;50.728;4.160;2022-10-16T08:01:24;4.88;;;3.88;;
57635;SDS011;43465;50.728;4.160;2022-10-16T08:03:50;6.20;;;3.80;;
57635;SDS011;43465;50.728;4.160;2022-10-16T08:06:16;8.75;;;3.65;;
57635;SDS011;43465;50.728;4.160;2022-10-16T08:08:43;5.57;;;3.60;;
57635;SDS011;43465;50.728;4.160;2022-10-16T08:11:09;4.78;;;3.80;;
57635;SDS011;43465;50.728;4.160;2022-10-16T08:13:35;5.03;;;3.38;;
57635;SDS011;43465;50.728;4.160;2022-10-16T08:16:01;4.70;;;3.22;;
57635;SDS011;43465;50.728;4.160;2022-10-16T08:18:32;6.60;;;3.30;;
57635;SDS011;43465;50.728;4.160;2022-10-16T08:20:59;7.65;;;3.35;;
57635;SDS011;43465;50.728;4.160;2022-10-16T08:23:25;5.63;;;3.20;;
57635;SDS011;43465;50.728;4.160;2022-10-16T08:25:53;4.47;;;2.90;;
57635;SDS011;43465;50.728;4.160;2022-10-16T08:28:20;10.43;;;2.97;;
57635;SDS011;43465;50.728;4.160;2022-10-16T08:30:46;4.68;;;2.90;;
57635;SDS011;43465;50.728;4.160;2022-10-16T08:33:11;8.80;;;2.70;;
57635;SDS011;43465;50.728;4.160;2022-10-16T08:35:37;4.53;;;2.38;;
57635;SDS011;43465;50.728;4.160;2022-10-16T08:38:06;5.97;;;2.40;;
57635;SDS011;43465;50.728;4.160;2022-10-16T08:40:32;7.97;;;2.88;;
57635;SDS011;43465;50.728;4.160;2022-10-16T08:50:54;3.80;;;2.33;;
57635;SDS011;43465;50.728;4.160;2022-10-16T08:53:28;5.88;;;2.17;;
57635;SDS011;43465;50.728;4.160;2022-10-16T08:55:58;7.32;;;2.10;;
57635;SDS011;43465;50.728;4.160;2022-10-16T08:58:28;3.83;;;2.17;;
57635;SDS011;43465;50.728;4.160;2022-10-16T09:00:56;6.90;;;2.22;;
57635;SDS011;43465;50.728;4.160;2022-10-16T09:11:14;4.90;;;1.90;;
57635;SDS011;43465;50.728;4.160;2022-10-16T09:13:57;4.00;;;1.67;;
57635;SDS011;43465;50.728;4.160;2022-10-16T09:16:44;5.13;;;1.85;;
57635;SDS011;43465;50.728;4.160;2022-10-16T09:19:29;5.43;;;1.38;;
57635;SDS011;43465;50.728;4.160;2022-10-16T09:22:04;5.07;;;1.77;;
57635;SDS011;43465;50.728;4.160;2022-10-16T09:24:39;2.78;;;1.50;;
57635;SDS011;43465;50.728;4.160;2022-10-16T09:27:07;6.45;;;2.17;;
57635;SDS011;43465;50.728;4.160;2022-10-16T09:29:36;6.25;;;2.10;;
57635;SDS011;43465;50.728;4.160;2022-10-16T09:32:12;2.72;;;1.85;;
57635;SDS011;43465;50.728;4.160;2022-10-16T09:34:43;3.95;;;1.80;;
57635;SDS011;43465;50.728;4.160;2022-10-16T09:37:14;5.45;;;2.03;;
57635;SDS011;43465;50.728;4.160;2022-10-16T09:39:47;3.90;;;1.90;;
57635;SDS011;43465;50.728;4.160;2022-10-16T09:42:28;3.75;;;2.05;;
57635;SDS011;43465;50.728;4.160;2022-10-16T09:44:57;5.00;;;1.85;;
57635;SDS011;43465;50.728;4.160;2022-10-16T09:47:24;8.18;;;2.05;;
57635;SDS011;43465;50.728;4.160;2022-10-16T09:49:55;7.60;;;2.22;;
57635;SDS011;43465;50.728;4.160;2022-10-16T09:52:31;7.68;;;2.45;;
57635;SDS011;43465;50.728;4.160;2022-10-16T09:54:58;3.25;;;1.58;;
57635;SDS011;43465;50.728;4.160;2022-10-16T09:57:37;5.60;;;1.77;;
57635;SDS011;43465;50.728;4.160;2022-10-16T10:00:15;5.15;;;1.70;;
57635;SDS011;43465;50.728;4.160;2022-10-16T10:02:42;5.63;;;1.70;;
57635;SDS011;43465;50.728;4.160;2022-10-16T10:05:17;3.92;;;1.65;;
57635;SDS011;43465;50.728;4.160;2022-10-16T10:07:44;3.80;;;1.70;;
57635;SDS011;43465;50.728;4.160;2022-10-16T10:10:21;5.00;;;2.40;;
57635;SDS011;43465;50.728;4.160;2022-10-16T10:12:49;5.75;;;1.88;;
57635;SDS011;43465;50.728;4.160;2022-10-16T10:15:15;5.50;;;1.70;;
57635;SDS011;43465;50.728;4.160;2022-10-16T10:22:59;8.40;;;1.35;;
57635;SDS011;43465;50.728;4.160;2022-10-16T10:38:59;5.05;;;1.70;;
57635;SDS011;43465;50.728;4.160;2022-10-16T10:58:25;3.88;;;1.33;;
57635;SDS011;43465;50.728;4.160;2022-10-16T11:01:16;3.70;;;1.20;;
57635;SDS011;43465;50.728;4.160;2022-10-16T11:07:01;3.17;;;0.90;;
57635;SDS011;43465;50.728;4.160;2022-10-16T11:09:37;3.22;;;1.10;;
57635;SDS011;43465;50.728;4.160;2022-10-16T11:12:12;4.53;;;0.80;;
57635;SDS011;43465;50.728;4.160;2022-10-16T11:17:38;4.57;;;1.33;;
57635;SDS011;43465;50.728;4.160;2022-10-16T11:20:36;3.38;;;1.40;;
57635;SDS011;43465;50.728;4.160;2022-10-16T11:25:41;2.28;;;1.30;;
57635;SDS011;43465;50.728;4.160;2022-10-16T11:28:20;3.80;;;1.50;;
57635;SDS011;43465;50.728;4.160;2022-10-16T11:30:54;4.38;;;1.27;;
57635;SDS011;43465;50.728;4.160;2022-10-16T11:33:27;5.35;;;1.63;;
57635;SDS011;43465;50.728;4.160;2022-10-16T11:42:16;3.95;;;1.30;;
57635;SDS011;43465;50.728;4.160;2022-10-16T11:44:51;2.63;;;1.33;;
57635;SDS011;43465;50.728;4.160;2022-10-16T11:47:40;4.57;;;1.17;;
57635;SDS011;43465;50.728;4.160;2022-10-16T11:50:17;4.22;;;1.45;;
57635;SDS011;43465;50.728;4.160;2022-10-16T11:53:09;4.45;;;1.23;;
57635;SDS011;43465;50.728;4.160;2022-10-16T11:55:57;3.83;;;1.30;;
57635;SDS011;43465;50.728;4.160;2022-10-16T11:58:58;4.90;;;1.17;;
57635;SDS011;43465;50.728;4.160;2022-10-16T12:01:31;3.78;;;1.30;;
57635;SDS011;43465;50.728;4.160;2022-10-16T12:09:30;3.38;;;1.00;;
57635;SDS011;43465;50.728;4.160;2022-10-16T12:11:57;5.38;;;1.40;;
57635;SDS011;43465;50.728;4.160;2022-10-16T12:17:26;3.38;;;1.00;;
57635;SDS011;43465;50.728;4.160;2022-10-16T12:20:25;3.42;;;1.23;;
57635;SDS011;43465;50.728;4.160;2022-10-16T12:22:54;3.53;;;1.05;;
57635;SDS011;43465;50.728;4.160;2022-10-16T12:25:33;2.50;;;1.00;;
57635;SDS011;43465;50.728;4.160;2022-10-16T12:28:20;3.80;;;1.30;;
57635;SDS011;43465;50.728;4.160;2022-10-16T12:31:01;3.08;;;1.25;;
57635;SDS011;43465;50.728;4.160;2022-10-16T12:33:37;3.35;;;1.10;;
57635;SDS011;43465;50.728;4.160;2022-10-16T12:36:13;3.95;;;1.30;;
57635;SDS011;43465;50.728;4.160;2022-10-16T12:38:48;3.92;;;1.48;;
57635;SDS011;43465;50.728;4.160;2022-10-16T12:41:26;3.88;;;1.10;;
57635;SDS011;43465;50.728;4.160;2022-10-16T12:43:59;4.60;;;1.20;;
57635;SDS011;43465;50.728;4.160;2022-10-16T12:49:37;3.20;;;1.23;;
57635;SDS011;43465;50.728;4.160;2022-10-16T12:51:46;2.45;;;1.00;;
57635;SDS011;43465;50.728;4.160;2022-10-16T12:54:17;3.45;;;1.08;;
57635;SDS011;43465;50.728;4.160;2022-10-16T13:02:21;3.80;;;1.17;;
57635;SDS011;43465;50.728;4.160;2022-10-16T13:10:50;4.47;;;1.05;;
57635;SDS011;43465;50.728;4.160;2022-10-16T13:22:03;2.20;;;1.10;;
57635;SDS011;43465;50.728;4.160;2022-10-16T13:29:53;2.50;;;1.00;;
57635;SDS011;43465;50.728;4.160;2022-10-16T13:32:34;5.95;;;1.30;;
57635;SDS011;43465;50.728;4.160;2022-10-16T13:35:00;4.00;;;1.05;;
57635;SDS011;43465;50.728;4.160;2022-10-16T13:37:26;3.55;;;1.20;;
57635;SDS011;43465;50.728;4.160;2022-10-16T13:40:01;3.08;;;1.30;;
57635;SDS011;43465;50.728;4.160;2022-10-16T13:42:36;7.72;;;1.60;;
57635;SDS011;43465;50.728;4.160;2022-10-16T13:45:02;3.83;;;1.15;;
57635;SDS011;43465;50.728;4.160;2022-10-16T13:47:28;5.40;;;1.52;;
57635;SDS011;43465;50.728;4.160;2022-10-16T13:50:05;6.53;;;0.90;;
57635;SDS011;43465;50.728;4.160;2022-10-16T13:52:36;4.00;;;0.95;;
57635;SDS011;43465;50.728;4.160;2022-10-16T13:55:03;3.38;;;1.20;;
57635;SDS011;43465;50.728;4.160;2022-10-16T13:57:34;2.83;;;0.93;;
57635;SDS011;43465;50.728;4.160;2022-10-16T14:00:00;3.60;;;1.10;;
57635;SDS011;43465;50.728;4.160;2022-10-16T14:05:00;5.97;;;1.45;;
57635;SDS011;43465;50.728;4.160;2022-10-16T14:07:30;4.20;;;0.80;;
57635;SDS011;43465;50.728;4.160;2022-10-16T14:10:00;2.55;;;1.00;;
57635;SDS011;43465;50.728;4.160;2022-10-16T14:12:28;3.00;;;0.93;;
57635;SDS011;43465;50.728;4.160;2022-10-16T14:14:54;2.45;;;1.00;;
57635;SDS011;43465;50.728;4.160;2022-10-16T14:17:31;3.63;;;1.00;;
57635;SDS011;43465;50.728;4.160;2022-10-16T14:20:02;3.78;;;1.00;;
57635;SDS011;43465;50.728;4.160;2022-10-16T14:25:00;4.03;;;1.10;;
57635;SDS011;43465;50.728;4.160;2022-10-16T14:27:29;2.67;;;0.95;;
57635;SDS011;43465;50.728;4.160;2022-10-16T14:32:41;4.75;;;1.00;;
57635;SDS011;43465;50.728;4.160;2022-10-16T14:37:53;5.45;;;1.10;;
57635;SDS011;43465;50.728;4.160;2022-10-16T14:40:20;2.22;;;1.05;;
57635;SDS011;43465;50.728;4.160;2022-10-16T14:42:50;4.10;;;1.10;;
57635;SDS011;43465;50.728;4.160;2022-10-16T14:45:23;2.80;;;1.02;;
57635;SDS011;43465;50.728;4.160;2022-10-16T14:47:54;2.65;;;1.10;;
57635;SDS011;43465;50.728;4.160;2022-10-16T14:50:22;2.78;;;1.00;;
57635;SDS011;43465;50.728;4.160;2022-10-16T14:52:48;3.10;;;1.23;;
57635;SDS011;43465;50.728;4.160;2022-10-16T14:55:13;3.25;;;1.05;;
57635;SDS011;43465;50.728;4.160;2022-10-16T14:57:39;1.33;;;0.82;;
57635;SDS011;43465;50.728;4.160;2022-10-16T15:00:09;2.35;;;0.85;;
57635;SDS011;43465;50.728;4.160;2022-10-16T15:02:44;3.60;;;1.00;;
57635;SDS011;43465;50.728;4.160;2022-10-16T15:05:18;0.77;;;0.65;;
57635;SDS011;43465;50.728;4.160;2022-10-16T15:07:47;2.50;;;1.00;;
57635;SDS011;43465;50.728;4.160;2022-10-16T15:10:14;2.47;;;1.23;;
57635;SDS011;43465;50.728;4.160;2022-10-16T15:12:41;1.42;;;0.75;;
57635;SDS011;43465;50.728;4.160;2022-10-16T15:17:47;3.55;;;1.05;;
57635;SDS011;43465;50.728;4.160;2022-10-16T15:20:22;1.17;;;0.90;;
57635;SDS011;43465;50.728;4.160;2022-10-16T15:22:48;5.60;;;1.13;;
57635;SDS011;43465;50.728;4.160;2022-10-16T15:28:01;4.82;;;1.30;;
57635;SDS011;43465;50.728;4.160;2022-10-16T15:30:28;3.72;;;1.20;;
57635;SDS011;43465;50.728;4.160;2022-10-16T15:32:54;3.10;;;1.10;;
57635;SDS011;43465;50.728;4.160;2022-10-16T15:35:20;4.35;;;0.90;;
57635;SDS011;43465;50.728;4.160;2022-10-16T15:37:46;2.33;;;0.80;;
57635;SDS011;43465;50.728;4.160;2022-10-16T15:40:12;2.85;;;1.00;;
57635;SDS011;43465;50.728;4.160;2022-10-16T15:42:38;5.00;;;1.15;;
57635;SDS011;43465;50.728;4.160;2022-10-16T15:45:04;2.75;;;1.02;;
57635;SDS011;43465;50.728;4.160;2022-10-16T15:47:31;5.82;;;1.23;;
57635;SDS011;43465;50.728;4.160;2022-10-16T15:49:57;3.08;;;0.90;;
57635;SDS011;43465;50.728;4.160;2022-10-16T15:52:23;3.17;;;1.00;;
57635;SDS011;43465;50.728;4.160;2022-10-16T15:54:48;2.47;;;1.00;;
57635;SDS011;43465;50.728;4.160;2022-10-16T15:57:14;1.25;;;0.90;;
57635;SDS011;43465;50.728;4.160;2022-10-16T15:59:40;2.15;;;1.17;;
57635;SDS011;43465;50.728;4.160;2022-10-16T16:02:05;2.70;;;1.20;;
57635;SDS011;43465;50.728;4.160;2022-10-16T16:04:32;1.33;;;0.90;;
57635;SDS011;43465;50.728;4.160;2022-10-16T16:06:58;1.75;;;1.40;;
57635;SDS011;43465;50.728;4.160;2022-10-16T16:09:24;2.22;;;1.02;;
57635;SDS011;43465;50.728;4.160;2022-10-16T16:11:49;3.83;;;1.40;;
57635;SDS011;43465;50.728;4.160;2022-10-16T16:14:17;3.17;;;1.58;;
57635;SDS011;43465;50.728;4.160;2022-10-16T16:16:42;2.25;;;1.60;;
57635;SDS011;43465;50.728;4.160;2022-10-16T16:19:08;3.33;;;1.90;;
57635;SDS011;43465;50.728;4.160;2022-10-16T16:21:34;4.85;;;1.58;;
57635;SDS011;43465;50.728;4.160;2022-10-16T16:24:00;3.33;;;1.70;;
57635;SDS011;43465;50.728;4.160;2022-10-16T16:26:32;1.50;;;1.20;;
57635;SDS011;43465;50.728;4.160;2022-10-16T16:29:02;3.10;;;1.10;;
57635;SDS011;43465;50.728;4.160;2022-10-16T16:31:28;2.72;;;1.13;;
57635;SDS011;43465;50.728;4.160;2022-10-16T16:33:55;2.60;;;1.33;;
57635;SDS011;43465;50.728;4.160;2022-10-16T16:36:22;2.38;;;1.48;;
57635;SDS011;43465;50.728;4.160;2022-10-16T16:38:49;2.90;;;1.52;;
57635;SDS011;43465;50.728;4.160;2022-10-16T16:41:19;4.72;;;1.65;;
57635;SDS011;43465;50.728;4.160;2022-10-16T16:43:50;4.53;;;2.10;;
57635;SDS011;43465;50.728;4.160;2022-10-16T16:46:17;3.80;;;1.80;;
57635;SDS011;43465;50.728;4.160;2022-10-16T16:48:43;3.63;;;1.90;;
57635;SDS011;43465;50.728;4.160;2022-10-16T16:51:11;3.28;;;1.48;;
57635;SDS011;43465;50.728;4.160;2022-10-16T16:53:40;5.43;;;1.95;;
57635;SDS011;43465;50.728;4.160;2022-10-16T16:56:06;6.30;;;2.15;;
57635;SDS011;43465;50.728;4.160;2022-10-16T16:58:32;3.35;;;2.10;;
57635;SDS011;43465;50.728;4.160;2022-10-16T17:00:58;5.53;;;2.35;;
57635;SDS011;43465;50.728;4.160;2022-10-16T17:03:27;5.40;;;2.00;;
57635;SDS011;43465;50.728;4.160;2022-10-16T17:05:57;2.78;;;1.90;;
57635;SDS011;43465;50.728;4.160;2022-10-16T17:08:23;6.40;;;1.90;;
57635;SDS011;43465;50.728;4.160;2022-10-16T17:10:49;6.10;;;2.13;;